createdAt,value
2019-04-28T00:00:01.459Z,9.37
2019-04-28T00:04:05.558Z,8.03
2019-04-28T00:08:07.635Z,8.00
2019-04-28T00:12:10.978Z,8.30
2019-04-28T00:16:13.119Z,7.33
2019-04-28T00:20:21.319Z,6.20
2019-04-28T00:24:25.057Z,8.30
2019-04-28T00:28:26.936Z,8.43
2019-04-28T00:32:30.491Z,6.30
2019-04-28T00:36:32.434Z,8.20
2019-04-28T00:40:34.574Z,4.67
2019-04-28T00:44:36.524Z,4.63
2019-04-28T00:48:38.699Z,4.28
2019-04-28T00:52:41.853Z,5.90
2019-04-28T00:56:43.894Z,6.20
2019-04-28T01:01:05.599Z,4.03
2019-04-28T01:05:11.341Z,3.30
2019-04-28T01:09:13.867Z,4.50
2019-04-28T01:13:15.763Z,4.60
2019-04-28T01:17:34.365Z,5.23
2019-04-28T01:21:37.907Z,6.60
2019-04-28T01:25:40.162Z,6.33
2019-04-28T01:29:43.602Z,4.20
2019-04-28T01:34:03.316Z,6.77
2019-04-28T01:38:05.278Z,4.30
2019-04-28T01:42:07.170Z,3.73
2019-04-28T01:46:10.171Z,5.50
2019-04-28T01:50:12.203Z,5.33
2019-04-28T01:54:14.101Z,6.47
2019-04-28T01:58:15.987Z,4.53
2019-04-28T02:02:19.788Z,5.33
2019-04-28T02:06:22.805Z,5.70
2019-04-28T02:10:24.734Z,3.73
2019-04-28T02:14:27.452Z,7.17
2019-04-28T02:18:29.926Z,8.70
2019-04-28T02:22:34.235Z,6.93
2019-04-28T02:26:36.117Z,6.00
2019-04-28T02:30:45.347Z,3.58
2019-04-28T02:34:41.977Z,5.00
2019-04-28T02:38:43.853Z,7.47
2019-04-28T02:42:45.868Z,5.37
2019-04-28T02:46:50.576Z,7.20
2019-04-28T02:51:01.234Z,9.77
2019-04-28T02:55:03.496Z,5.20
2019-04-28T02:59:06.601Z,4.60
2019-04-28T03:03:10.851Z,6.40
2019-04-28T03:07:14.660Z,5.07
2019-04-28T03:11:15.759Z,4.53
2019-04-28T03:15:20.386Z,6.57
2019-04-28T03:19:23.012Z,3.98
2019-04-28T03:23:25.086Z,8.10
2019-04-28T03:27:44.926Z,3.67
2019-04-28T03:32:28.264Z,4.67
2019-04-28T03:36:14.678Z,3.07
2019-04-28T03:40:12.645Z,7.27
2019-04-28T03:44:14.532Z,3.33
2019-04-28T03:48:16.546Z,3.17
2019-04-28T03:52:21.189Z,2.30
2019-04-28T03:56:23.325Z,2.90
2019-04-28T04:00:25.419Z,3.10
2019-04-28T04:04:27.377Z,2.58
2019-04-28T04:08:30.886Z,1.93
2019-04-28T04:12:36.962Z,2.47
2019-04-28T04:16:41.285Z,0.98
2019-04-28T04:20:43.178Z,3.90
2019-04-28T04:24:45.109Z,1.67
2019-04-28T04:28:46.987Z,2.13
2019-04-28T04:32:50.660Z,2.53
2019-04-28T04:36:52.471Z,1.70
2019-04-28T04:40:54.372Z,1.83
2019-04-28T04:44:56.344Z,3.60
2019-04-28T04:49:07.720Z,1.90
2019-04-28T04:53:11.401Z,1.50
2019-04-28T04:57:13.332Z,4.00
2019-04-28T05:01:32.724Z,2.83
2019-04-28T05:05:40.380Z,4.10
2019-04-28T05:09:43.388Z,4.63
2019-04-28T05:13:45.273Z,3.37
2019-04-28T05:17:47.170Z,4.07
2019-04-28T05:21:49.846Z,3.10
2019-04-28T05:25:51.904Z,2.70
2019-04-28T05:29:56.947Z,2.97
2019-04-28T05:33:57.606Z,3.60
2019-04-28T05:37:59.881Z,8.27
2019-04-28T05:42:01.836Z,3.13
2019-04-28T05:46:03.958Z,4.40
2019-04-28T05:50:14.489Z,4.50
2019-04-28T05:54:23.478Z,3.50
2019-04-28T05:58:32.531Z,3.30
2019-04-28T06:02:54.176Z,6.33
2019-04-28T06:06:47.002Z,4.37
2019-04-28T06:10:49.838Z,4.30
2019-04-28T06:14:52.069Z,4.30
2019-04-28T06:18:54.043Z,6.07
2019-04-28T06:22:55.990Z,4.83
2019-04-28T06:26:57.851Z,6.72
2019-04-28T06:30:59.759Z,6.25
2019-04-28T06:35:02.554Z,5.07
2019-04-28T06:39:08.212Z,3.83
2019-04-28T06:43:10.116Z,4.23
2019-04-28T06:47:12.026Z,2.20
2019-04-28T06:51:13.921Z,5.03
2019-04-28T06:55:15.874Z,3.47
2019-04-28T06:59:18.042Z,4.60
2019-04-28T07:03:23.194Z,3.90
2019-04-28T07:07:24.410Z,4.67
2019-04-28T07:11:26.296Z,6.50
2019-04-28T07:15:28.285Z,3.50
2019-04-28T07:19:30.171Z,5.50
2019-04-28T07:23:33.113Z,3.77
2019-04-28T07:27:35.008Z,3.03
2019-04-28T07:31:37.082Z,5.15
2019-04-28T07:35:38.989Z,3.67
2019-04-28T07:39:40.994Z,3.50
2019-04-28T07:43:42.915Z,6.07
2019-04-28T07:47:44.831Z,6.10
2019-04-28T07:51:51.434Z,7.47
2019-04-28T07:55:53.391Z,9.10
2019-04-28T07:59:56.527Z,5.37
2019-04-28T08:03:58.585Z,8.50
2019-04-28T08:08:00.472Z,10.57
2019-04-28T08:12:02.416Z,10.07
2019-04-28T08:16:23.159Z,15.97
2019-04-28T08:28:41.450Z,11.07
2019-04-28T08:32:47.912Z,12.37
2019-04-28T08:36:49.821Z,11.03
2019-04-28T08:40:51.794Z,13.50
2019-04-28T08:44:53.790Z,11.67
2019-04-28T08:48:55.728Z,11.17
2019-04-28T08:52:57.635Z,13.13
2019-04-28T08:56:59.531Z,14.47
2019-04-28T09:01:01.440Z,13.83
2019-04-28T09:05:03.881Z,10.93
2019-04-28T09:09:08.133Z,11.43
2019-04-28T09:13:11.253Z,9.13
2019-04-28T09:17:13.127Z,7.83
2019-04-28T09:21:15.089Z,8.93
2019-04-28T09:25:26.784Z,12.10
2019-04-28T09:29:28.762Z,15.28
2019-04-28T09:33:30.672Z,14.07
2019-04-28T09:37:32.562Z,12.98
2019-04-28T09:42:11.120Z,8.80
2019-04-28T09:46:13.500Z,8.90
2019-04-28T09:50:28.870Z,14.67
2019-04-28T09:54:30.800Z,8.45
2019-04-28T09:58:32.728Z,9.10
2019-04-28T10:02:34.757Z,10.93
2019-04-28T10:06:36.658Z,9.55
2019-04-28T10:10:38.568Z,11.90
2019-04-28T10:14:40.470Z,14.28
2019-04-28T10:18:42.520Z,11.65
2019-04-28T10:22:44.485Z,12.23
2019-04-28T10:26:46.477Z,15.23
2019-04-28T10:30:50.126Z,12.53
2019-04-28T10:34:55.125Z,14.20
2019-04-28T10:38:57.611Z,7.53
2019-04-28T10:42:59.511Z,9.23
2019-04-28T10:47:01.866Z,11.67
2019-04-28T10:51:03.921Z,9.33
2019-04-28T10:55:06.855Z,11.97
2019-04-28T10:59:08.833Z,11.77
2019-04-28T11:03:10.737Z,11.03
2019-04-28T11:07:14.463Z,13.63
2019-04-28T11:11:18.014Z,15.73
2019-04-28T11:15:33.958Z,9.67
2019-04-28T11:19:35.913Z,9.68
2019-04-28T11:23:39.379Z,10.53
2019-04-28T11:27:42.189Z,12.25
2019-04-28T11:31:44.169Z,9.83
2019-04-28T11:35:48.138Z,10.30
2019-04-28T11:39:51.151Z,5.53
2019-04-28T11:43:54.210Z,8.43
2019-04-28T11:47:56.118Z,6.00
2019-04-28T11:51:58.099Z,6.60
2019-04-28T11:56:00.520Z,5.67
2019-04-28T12:00:04.058Z,5.63
2019-04-28T12:04:07.687Z,7.17
2019-04-28T12:08:09.677Z,7.00
2019-04-28T12:12:13.223Z,8.17
2019-04-28T12:16:25.845Z,6.77
2019-04-28T12:20:27.928Z,7.57
2019-04-28T12:24:29.849Z,7.65
2019-04-28T12:28:31.776Z,4.73
2019-04-28T12:32:33.687Z,8.23
2019-04-28T12:36:35.692Z,8.88
2019-04-28T12:40:37.590Z,6.45
2019-04-28T12:44:39.558Z,6.87
2019-04-28T12:48:41.545Z,9.65
2019-04-28T12:52:43.433Z,7.93
2019-04-28T12:56:48.569Z,9.10
2019-04-28T13:01:01.685Z,8.47
2019-04-28T13:05:08.905Z,6.13
2019-04-28T13:09:10.807Z,8.80
2019-04-28T13:13:13.268Z,5.30
2019-04-28T13:17:15.172Z,4.33
2019-04-28T13:21:17.075Z,5.87
2019-04-28T13:25:18.975Z,5.20
2019-04-28T13:29:21.131Z,4.67
2019-04-28T13:33:23.037Z,3.92
2019-04-28T13:37:24.940Z,2.52
2019-04-28T13:41:26.838Z,5.23
2019-04-28T13:45:29.817Z,3.87
2019-04-28T13:49:33.353Z,3.90
2019-04-28T13:53:35.418Z,4.77
2019-04-28T13:57:37.318Z,4.87
2019-04-28T14:01:44.008Z,2.83
2019-04-28T14:06:04.071Z,3.33
2019-04-28T14:10:09.042Z,4.90
2019-04-28T14:14:10.940Z,3.57
2019-04-28T14:18:13.239Z,2.90
2019-04-28T14:22:15.231Z,2.20
2019-04-28T14:26:17.159Z,2.40
2019-04-28T14:30:19.735Z,7.90
2019-04-28T14:34:21.699Z,2.40
2019-04-28T14:38:23.640Z,3.67
2019-04-28T14:42:25.718Z,8.33
2019-04-28T14:46:27.699Z,4.93
2019-04-28T14:50:30.109Z,3.60
2019-04-28T14:54:32.141Z,2.55
2019-04-28T14:58:34.070Z,4.58
2019-04-28T15:02:40.332Z,3.72
2019-04-28T15:06:55.535Z,5.27
2019-04-28T15:10:57.685Z,3.37
2019-04-28T15:15:12.931Z,3.60
2019-04-28T15:19:14.959Z,4.20
2019-04-28T15:23:16.859Z,9.77
2019-04-28T15:27:18.774Z,5.83
2019-04-28T15:31:20.708Z,4.90
2019-04-28T15:35:22.595Z,4.63
2019-04-28T15:39:25.423Z,5.22
2019-04-28T15:43:27.349Z,3.63
2019-04-28T15:47:29.251Z,5.73
2019-04-28T15:51:32.139Z,4.80
2019-04-28T15:55:38.373Z,5.03
2019-04-28T15:59:40.323Z,4.30
2019-04-28T16:03:42.272Z,6.53
2019-04-28T16:07:44.232Z,6.37
2019-04-28T16:11:46.135Z,6.23
2019-04-28T16:15:48.411Z,4.63
2019-04-28T16:19:50.327Z,7.57
2019-04-28T16:23:52.582Z,5.67
2019-04-28T16:27:54.483Z,6.67
2019-04-28T16:31:56.529Z,9.03
2019-04-28T16:35:58.439Z,3.53
2019-04-28T16:40:00.369Z,8.30
2019-04-28T16:44:02.279Z,6.43
2019-04-28T16:48:04.192Z,5.67
2019-04-28T16:52:14.269Z,4.13
2019-04-28T16:56:15.962Z,3.77
2019-04-28T17:00:31.481Z,7.40
2019-04-28T17:04:33.685Z,4.45
2019-04-28T17:08:35.598Z,4.97
2019-04-28T17:12:37.522Z,6.08
2019-04-28T17:16:39.425Z,5.97
2019-04-28T17:20:41.681Z,5.00
2019-04-28T17:24:43.583Z,6.58
2019-04-28T17:28:46.480Z,5.30
2019-04-28T17:32:48.428Z,6.87
2019-04-28T17:36:50.348Z,8.47
2019-04-28T17:40:52.238Z,4.47
2019-04-28T17:44:54.192Z,8.43
2019-04-28T17:48:58.787Z,4.63
2019-04-28T17:53:00.693Z,2.93
2019-04-28T17:57:12.169Z,5.53
2019-04-28T18:01:21.692Z,9.00
2019-04-28T18:05:31.376Z,7.27
2019-04-28T18:09:33.322Z,4.25
2019-04-28T18:13:35.253Z,7.62
2019-04-28T18:17:47.583Z,11.23
2019-04-28T18:21:49.501Z,4.63
2019-04-28T18:25:51.387Z,6.53
2019-04-28T18:29:53.291Z,3.17
2019-04-28T18:34:13.105Z,6.40
2019-04-28T18:38:34.345Z,7.30
2019-04-28T18:42:30.404Z,4.90
2019-04-28T18:46:32.365Z,7.03
2019-04-28T18:50:34.249Z,3.57
2019-04-28T18:54:36.225Z,1.55
2019-04-28T18:58:38.133Z,4.47
2019-04-28T19:02:39.800Z,5.37
2019-04-28T19:06:42.856Z,5.83
2019-04-28T19:11:02.795Z,2.83
2019-04-28T19:15:07.481Z,4.30
2019-04-28T19:19:11.022Z,4.93
2019-04-28T19:23:26.219Z,6.83
2019-04-28T19:27:28.143Z,7.07
2019-04-28T19:31:30.125Z,4.30
2019-04-28T19:35:32.030Z,6.43
2019-04-28T19:39:33.916Z,4.00
2019-04-28T19:43:35.811Z,5.72
2019-04-28T19:47:37.711Z,5.20
2019-04-28T19:51:39.591Z,8.23
2019-04-28T19:55:49.002Z,4.27
2019-04-28T20:00:08.750Z,3.10
2019-04-28T20:04:12.236Z,8.20
2019-04-28T20:08:14.160Z,4.50
2019-04-28T20:12:16.025Z,4.00
2019-04-28T20:16:17.922Z,6.63
2019-04-28T20:20:19.880Z,1.53
2019-04-28T20:24:22.859Z,5.30
2019-04-28T20:28:26.154Z,3.20
2019-04-28T20:32:29.707Z,4.60
2019-04-28T20:36:35.996Z,4.15
2019-04-28T20:40:40.508Z,2.08
2019-04-28T20:44:42.391Z,1.57
2019-04-28T20:48:44.612Z,5.47
2019-04-28T20:52:53.561Z,5.27
2019-04-28T20:56:55.451Z,3.75
2019-04-28T21:00:57.339Z,3.37
2019-04-28T21:04:59.245Z,5.00
2019-04-28T21:09:01.895Z,4.03
2019-04-28T21:13:05.623Z,3.53
2019-04-28T21:17:07.497Z,3.10
2019-04-28T21:21:09.716Z,3.30
2019-04-28T21:25:11.929Z,5.83
2019-04-28T21:29:13.833Z,2.07
2019-04-28T21:33:16.036Z,1.70
2019-04-28T21:37:18.584Z,2.97
2019-04-28T21:41:20.633Z,5.08
2019-04-28T21:45:27.188Z,4.13
2019-04-28T21:49:30.855Z,7.23
2019-04-28T21:53:32.753Z,6.93
2019-04-28T21:57:34.648Z,5.67
2019-04-28T22:01:36.908Z,7.53
2019-04-28T22:05:39.912Z,7.70
2019-04-28T22:09:41.818Z,1.70
2019-04-28T22:13:45.321Z,5.47
2019-04-28T22:17:47.225Z,6.27
2019-04-28T22:21:49.198Z,5.70
2019-04-28T22:25:51.077Z,3.87
2019-04-28T22:29:52.980Z,4.67
2019-04-28T22:33:54.892Z,7.13
2019-04-28T22:37:56.776Z,4.03
2019-04-28T22:41:58.671Z,3.57
2019-04-28T22:46:00.563Z,5.30
2019-04-28T22:50:02.533Z,6.77
2019-04-28T22:54:09.590Z,6.87
2019-04-28T22:58:31.934Z,4.00
2019-04-28T23:02:33.853Z,5.53
2019-04-28T23:06:35.918Z,7.33
2019-04-28T23:10:37.823Z,6.55
2019-04-28T23:14:39.779Z,7.03
2019-04-28T23:18:41.681Z,6.28
2019-04-28T23:22:47.140Z,5.62
2019-04-28T23:26:48.873Z,5.90
2019-04-28T23:30:50.837Z,7.80
2019-04-28T23:34:52.741Z,6.70
2019-04-28T23:38:54.627Z,6.63
2019-04-28T23:42:58.161Z,4.00
2019-04-28T23:47:01.533Z,3.73
2019-04-28T23:51:03.198Z,5.77
2019-04-28T23:55:08.846Z,5.97
2019-04-28T23:59:10.731Z,4.93
